Terminal Aerodrome Forecast
Issued by NWS La Crosse, WI

Home | Current Version | Previous Version | Text Only | Print | Product List | Glossary On
Versions: 1 2 3 4 5 6 7 8 9 10 11 12 13 14 15 16 17 18 19 20
000
FTUS43 KARX 251841 AAA
TAFRST
TAF AMD
KRST 251841Z 2519/2618 11011KT P6SM VCTS BKN015CB
      TEMPO 2519/2520 1SM +TSRA BR BKN008CB
     FM252000 15011KT P6SM VCSH SCT012 BKN035
     FM260100 15006KT P6SM SCT030
     FM260800 18006KT 4SM BR VCSH BKN008
     FM261300 22007KT P6SM SCT008=

USA.gov is the U.S. government's official web portal to all federal, state and local government web resources and services.